x

Middle Nomad (46004) Wave Buoy

9:00pm - Tue 23rd Aug 2016 All times are PDT. -7 hours from GMT.

  • Sig Wave height 4.3ft
  • Peak Period 10s
  • Wind
    7mph, 9mph gusts
  • Sea Temp 62°f
  • Air Temp 58°f
  • Sea Pressure 1033.4mb
  • Middle Nomad
  • Middle Nomad

More Historic Weather Station data

Upgrade to MSW Pro to gain access to the past 30 days of data for over 8000 Wavebouys and Weather Stations around the globe.

Join Pro

Comparision Forecast

View Surf forecast
   
Tue 08/23 9:00pm 4.5ft 10s 7 9 mph 1033.4mb 62f 58f
8:00pm 4.5ft 10s 7 9 mph 1033mb 62f 58f
7:00pm 4.5ft 14s 7 9 mph 1032.6mb 62f 59f
6:00pm 4ft 10s 7 9 mph 1032.2mb 62f 59f
5:00pm 3.5ft 16s 7 9 mph 1032mb 62f 59f
4:00pm 3.5ft 16s 7 9 mph 1032mb 62f 59f
3:00pm 3.5ft 14s 7 9 mph 1031.7mb 62f 59f
2:00pm 4ft 16s 7
mph
1031.4mb 62f 59f
1:00pm 3.5ft 17s 9
mph
1031.2mb 62f 58f
12:00pm 3.5ft 16s 9
mph
1030.9mb 62f 58f
11:00am 3.5ft 14s 7 9 mph 1030.3mb 62f 58f
10:00am 3.5ft 17s 11 13 mph 1029.6mb 61f 58f
9:00am 3.5ft 14s 11 13 mph 1029mb 61f 58f
8:00am 3.5ft 17s 9
mph
1028.4mb 61f 59f
7:00am 3.5ft 14s 7 9 mph 1027.8mb 61f 59f
6:00am 3ft 14s 7 9 mph 1027.3mb 61f 60f
5:00am 3.5ft 15s 9 11 mph 1027mb 61f 60f
4:00am 3.5ft 14s 9 11 mph 1026.5mb 61f 61f
3:00am 3.5ft 14s 13 16 mph 1026.1mb 61f 61f
2:00am 3.5ft 14s 9 11 mph 1026mb 61f 61f
1:00am 3.5ft 15s 9 11 mph 1025.6mb 61f 62f
12:00am 3.5ft 15s 9
mph
1025.5mb 61f 62f
Mon 08/22 11:00pm 3.5ft 15s 9 11 mph 1025.3mb 61f 62f
10:00pm 3.5ft 15s 9 11 mph 1024.9mb 61f 62f
9:00pm 3.5ft 15s 9 11 mph 1024.4mb 61f 62f
8:00pm 3.5ft 14s 9 11 mph 1023.8mb 61f 62f
7:00pm 3.5ft 14s 13 16 mph 1023.5mb 62f 62f
6:00pm 4ft 14s 11 13 mph 1023.3mb 62f 62f
5:00pm 4.5ft 15s 13 16 mph 1023mb 62f 61f
4:00pm 4.5ft 15s 13 16 mph 1022.9mb 62f 61f
3:00pm 3.5ft 14s 13
mph
1022.8mb 62f 62f
2:00pm 4ft 15s 13 16 mph 1022.7mb 61f 62f
1:00pm 4ft 15s 11 13 mph 1022.6mb 61f 62f
12:00pm 4ft 14s 13 16 mph 1022.5mb 61f 61f
11:00am 4.5ft 15s 13 16 mph 1022.3mb 61f 60f
10:00am 4ft 16s 13 16 mph 1022.2mb 61f 60f
9:00am 3.5ft 15s 11 13 mph 1022.1mb 61f 60f
8:00am 4ft 7s 11
mph
1022mb 61f 60f
7:00am 4ft 15s 13 16 mph 1021.6mb 61f 60f
6:00am 4ft 7s 9 11 mph 1021.3mb 61f 60f
5:00am 4ft 7s 11 13 mph 1021.3mb 61f 60f
4:00am 4.5ft 7s 11 13 mph 1021.1mb 61f 59f
3:00am 5ft 15s 11 16 mph 1021.2mb 61f 59f
2:00am 5ft 6s 11 13 mph 1021.3mb 61f 59f
1:00am 5ft 6s 11 13 mph 1021.4mb 61f 59f
12:00am 4.5ft 16s 11 13 mph 1021.4mb 61f 60f
Sun 08/21 11:00pm 4.5ft 6s 13 16 mph 1021.6mb 61f 60f
10:00pm 4.5ft 6s 13
mph
1021.4mb 61f 60f
9:00pm 4.5ft 6s 11 13 mph 1021.2mb 61f 60f
8:00pm 4.5ft 16s 11 13 mph 1021mb 61f 60f
7:00pm 4.5ft 7s 13 16 mph 1020.7mb 61f 60f
6:00pm 5ft 7s 13 16 mph 1020.7mb 61f 60f
5:00pm 4.5ft 6s 16 20 mph 1020.8mb 61f 60f
4:00pm 5ft 7s 18 22 mph 1020.6mb 61f 60f
3:00pm 5ft 7s 16 20 mph 1020.5mb 61f 60f
2:00pm 5ft 6s 16 18 mph 1020.6mb 61f 60f
1:00pm 6ft 6s 16 18 mph 1020.7mb 61f 60f
12:00pm 6ft 6s 18 22 mph 1020.7mb 61f 60f
11:00am 6ft 6s 18 20 mph 1020.5mb 61f 60f
10:00am 6ft 6s 18 20 mph 1020.3mb 61f 60f
9:00am 6ft 7s 18 22 mph 1020mb 61f 60f
8:00am 5.5ft 6s 18 22 mph 1019.8mb 61f 60f
7:00am 6ft 7s 20 22 mph 1019.5mb 61f 59f
6:00am 6ft 6s 20 25 mph 1019.3mb 61f 59f
5:00am 6ft 7s 20 25 mph 1019.2mb 61f 60f
4:00am 5.5ft 6s 18 22 mph 1019.4mb 61f 60f
3:00am 5ft 7s 18 20 mph 1019.4mb 61f 60f
2:00am 5.5ft 6s 20 22 mph 1019.6mb 61f 60f
1:00am 6ft 7s 18 22 mph 1020.1mb 61f 60f
12:00am 6ft 6s 18 22 mph 1020.1mb 61f 60f
Sat 08/20 11:00pm 6ft 6s 18 22 mph 1020.2mb 61f 60f
10:00pm 6.5ft 6s 20 22 mph 1020.2mb 62f 60f
9:00pm 6ft 6s 20 22 mph 1020mb 62f 60f
8:00pm 6ft 6s 22 25 mph 1020mb 62f 60f
7:00pm 6ft 6s 22 27 mph 1020.2mb 62f 60f
6:00pm  -   -  20
mph
1020.4mb - 60f
5:00pm 6ft 6s 22 25 mph 1020.9mb 62f 60f
4:00pm 6ft 6s 20 25 mph 1021.3mb 62f 61f
3:00pm 6ft 7s 20 22 mph 1021.6mb 62f 61f
2:00pm 6ft 8s 20 25 mph 1021.8mb 62f 60f
1:00pm 6ft 7s 18 22 mph 1022mb 62f 60f
12:00pm 6ft 9s 18 20 mph 1022.2mb 61f 61f
11:00am 6ft 9s 16 20 mph 1022.7mb 61f 61f
10:00am 6ft 6s 20 22 mph 1022.8mb 61f 61f
9:00am 6ft 6s 18 22 mph 1022.8mb 61f 60f
8:00am 5.5ft 9s 18 22 mph 1022.7mb 61f 60f
7:00am 6ft 9s 18 22 mph 1022.6mb 61f 60f
6:00am 6ft 10s 20 22 mph 1022.4mb 61f 59f